createdAt,value
2023-04-20T00:02:46.195Z,7.30
2023-04-20T00:05:50.302Z,6.27
2023-04-20T00:08:52.935Z,8.93
2023-04-20T00:11:57.024Z,8.67
2023-04-20T00:14:59.900Z,6.97
2023-04-20T00:18:02.650Z,9.43
2023-04-20T00:21:05.459Z,8.23
2023-04-20T00:24:08.241Z,11.87
2023-04-20T00:27:12.478Z,9.73
2023-04-20T00:30:16.320Z,7.07
2023-04-20T00:33:19.118Z,6.70
2023-04-20T00:36:21.940Z,10.50
2023-04-20T00:39:24.599Z,9.27
2023-04-20T00:42:28.595Z,8.20
2023-04-20T00:45:31.271Z,6.50
2023-04-20T00:48:33.935Z,9.73
2023-04-20T00:51:36.810Z,8.27
2023-04-20T00:54:40.354Z,6.20
2023-04-20T00:57:45.325Z,5.17
2023-04-20T01:00:48.694Z,7.80
2023-04-20T01:03:51.519Z,8.33
2023-04-20T01:06:57.107Z,7.40
2023-04-20T01:09:59.815Z,6.23
2023-04-20T01:13:04.355Z,4.23
2023-04-20T01:16:07.996Z,4.73
2023-04-20T01:19:10.755Z,9.47
2023-04-20T01:22:18.172Z,10.43
2023-04-20T01:25:22.055Z,11.00
2023-04-20T01:28:26.427Z,6.70
2023-04-20T01:31:29.268Z,7.73
2023-04-20T01:34:32.098Z,4.87
2023-04-20T01:37:36.383Z,8.57
2023-04-20T01:40:41.288Z,6.17
2023-04-20T01:43:44.105Z,7.17
2023-04-20T01:46:46.945Z,6.07
2023-04-20T01:49:49.664Z,6.00
2023-04-20T01:52:53.717Z,5.40
2023-04-20T01:55:56.717Z,7.17
2023-04-20T01:58:59.472Z,8.00
2023-04-20T02:02:02.267Z,6.33
2023-04-20T02:05:05.160Z,7.60
2023-04-20T02:08:09.351Z,5.97
2023-04-20T02:11:12.046Z,4.90
2023-04-20T02:14:16.885Z,6.77
2023-04-20T02:17:19.786Z,6.13
2023-04-20T02:20:22.623Z,5.50
2023-04-20T02:23:26.728Z,6.33
2023-04-20T02:26:29.416Z,6.40
2023-04-20T02:29:32.742Z,6.47
2023-04-20T02:32:35.942Z,5.00
2023-04-20T02:35:38.704Z,7.37
2023-04-20T02:38:42.769Z,9.90
2023-04-20T02:41:45.449Z,8.50
2023-04-20T02:44:48.158Z,7.03
2023-04-20T02:47:57.339Z,7.07
2023-04-20T02:51:00.175Z,7.90
2023-04-20T02:54:04.916Z,9.57
2023-04-20T02:57:07.676Z,6.20
2023-04-20T03:00:13.435Z,8.07
2023-04-20T03:03:16.332Z,9.20
2023-04-20T03:06:19.337Z,7.73
2023-04-20T03:09:23.485Z,6.40
2023-04-20T03:12:26.685Z,13.73
2023-04-20T03:15:29.472Z,8.23
2023-04-20T03:18:32.282Z,10.17
2023-04-20T03:21:35.168Z,12.80
2023-04-20T03:24:39.212Z,11.13
2023-04-20T03:27:41.967Z,7.83
2023-04-20T03:30:44.684Z,8.70
2023-04-20T03:33:47.378Z,10.33
2023-04-20T03:36:50.126Z,8.00
2023-04-20T03:39:54.175Z,8.50
2023-04-20T03:42:57.145Z,7.93
2023-04-20T03:45:59.884Z,7.67
2023-04-20T03:49:03.367Z,9.50
2023-04-20T03:52:06.319Z,6.97
2023-04-20T03:55:10.935Z,6.53
2023-04-20T03:58:13.666Z,5.77
2023-04-20T04:01:16.678Z,7.47
2023-04-20T04:04:19.579Z,7.40
2023-04-20T04:07:22.429Z,6.20
2023-04-20T04:10:26.706Z,8.27
2023-04-20T04:13:29.515Z,9.63
2023-04-20T04:16:32.441Z,7.27
2023-04-20T04:19:35.180Z,9.30
2023-04-20T04:22:37.960Z,7.20
2023-04-20T04:25:42.255Z,9.00
2023-04-20T04:28:46.375Z,10.10
2023-04-20T04:31:49.076Z,10.07
2023-04-20T04:34:53.078Z,8.13
2023-04-20T04:37:55.916Z,8.27
2023-04-20T04:41:00.649Z,7.13
2023-04-20T04:44:03.641Z,7.93
2023-04-20T04:47:06.772Z,8.07
2023-04-20T04:50:10.547Z,13.07
2023-04-20T04:53:13.265Z,15.40
2023-04-20T04:56:20.529Z,6.03
2023-04-20T04:59:23.643Z,9.90
2023-04-20T05:02:26.565Z,13.30
2023-04-20T05:05:29.365Z,8.10
2023-04-20T05:08:32.039Z,10.07
2023-04-20T05:11:36.129Z,10.43
2023-04-20T05:14:38.930Z,9.50
2023-04-20T05:17:44.215Z,11.50
2023-04-20T05:20:46.956Z,12.10
2023-04-20T05:23:49.736Z,9.67
2023-04-20T05:26:53.861Z,10.07
2023-04-20T05:30:01.697Z,13.67
2023-04-20T05:33:09.638Z,14.27
2023-04-20T05:36:12.475Z,12.03
2023-04-20T05:39:15.481Z,8.80
2023-04-20T05:42:19.655Z,13.53
2023-04-20T05:45:22.407Z,10.40
2023-04-20T05:48:29.543Z,21.83
2023-04-20T05:51:34.034Z,16.23
2023-04-20T05:54:37.021Z,16.80
2023-04-20T05:57:44.402Z,12.43
2023-04-20T06:00:47.716Z,15.57
2023-04-20T06:03:50.693Z,14.03
2023-04-20T06:06:53.602Z,11.83
2023-04-20T06:09:57.316Z,14.43
2023-04-20T06:13:01.960Z,10.87
2023-04-20T06:16:09.427Z,9.10
2023-04-20T06:19:12.340Z,16.13
2023-04-20T06:22:15.852Z,11.00
2023-04-20T06:25:18.778Z,14.27
2023-04-20T06:28:22.820Z,16.17
2023-04-20T06:31:25.632Z,11.77
2023-04-20T06:34:28.441Z,15.27
2023-04-20T06:37:31.474Z,11.30
2023-04-20T06:40:36.548Z,17.37
2023-04-20T06:43:42.078Z,10.60
2023-04-20T06:46:45.182Z,12.97
2023-04-20T06:49:47.953Z,12.03
2023-04-20T06:52:50.792Z,10.33
2023-04-20T06:55:55.018Z,9.03
2023-04-20T06:58:59.470Z,10.03
2023-04-20T07:02:02.720Z,10.30
2023-04-20T07:05:06.047Z,8.07
2023-04-20T07:08:11.171Z,11.10
2023-04-20T07:11:13.897Z,11.17
2023-04-20T07:14:17.952Z,8.50
2023-04-20T07:17:20.651Z,14.17
2023-04-20T07:20:23.513Z,16.23
2023-04-20T07:23:26.420Z,9.93
2023-04-20T07:26:29.239Z,9.90
2023-04-20T07:29:34.139Z,9.03
2023-04-20T07:32:39.059Z,10.30
2023-04-20T07:35:41.788Z,11.03
2023-04-20T07:38:44.695Z,8.83
2023-04-20T07:41:47.449Z,14.47
2023-04-20T07:44:51.462Z,8.80
2023-04-20T07:47:55.291Z,8.83
2023-04-20T07:50:57.981Z,8.10
2023-04-20T07:54:00.795Z,11.33
2023-04-20T07:57:03.756Z,9.53
2023-04-20T08:00:10.530Z,10.27
2023-04-20T08:03:13.643Z,10.53
2023-04-20T08:06:16.504Z,9.97
2023-04-20T08:09:19.404Z,9.57
2023-04-20T08:12:22.249Z,11.23
2023-04-20T08:15:26.466Z,9.90
2023-04-20T08:18:30.448Z,7.37
2023-04-20T08:21:33.120Z,8.73
2023-04-20T08:24:35.864Z,9.47
2023-04-20T08:27:38.584Z,12.70
2023-04-20T08:30:42.776Z,11.63
2023-04-20T08:33:45.543Z,7.37
2023-04-20T08:36:48.273Z,8.47
2023-04-20T08:39:50.999Z,8.87
2023-04-20T08:42:54.073Z,9.50
2023-04-20T08:46:00.097Z,9.90
2023-04-20T08:49:03.607Z,7.13
2023-04-20T08:52:06.908Z,9.50
2023-04-20T08:55:09.917Z,8.10
2023-04-20T08:58:16.017Z,8.00
2023-04-20T09:01:35.367Z,10.63
2023-04-20T09:04:42.775Z,8.47
2023-04-20T09:07:53.140Z,8.43
2023-04-20T09:10:56.556Z,9.50
2023-04-20T09:14:01.576Z,10.40
2023-04-20T09:17:05.616Z,7.97
2023-04-20T09:20:11.183Z,8.30
2023-04-20T09:23:14.303Z,10.67
2023-04-20T09:26:19.010Z,7.07
2023-04-20T09:29:23.529Z,8.03
2023-04-20T09:32:29.352Z,9.13
2023-04-20T09:35:32.308Z,8.90
2023-04-20T09:38:35.022Z,7.97
2023-04-20T09:41:39.558Z,11.13
2023-04-20T09:44:43.296Z,9.97
2023-04-20T09:47:49.984Z,10.57
2023-04-20T09:50:53.663Z,7.47
2023-04-20T09:54:01.219Z,10.47
2023-04-20T09:57:06.705Z,9.27
2023-04-20T10:00:10.888Z,6.27
2023-04-20T10:03:18.876Z,5.33
2023-04-20T10:06:26.175Z,8.23
2023-04-20T10:09:31.069Z,5.23
2023-04-20T10:12:36.562Z,8.73
2023-04-20T10:15:40.793Z,6.97
2023-04-20T10:18:57.515Z,6.83
2023-04-20T10:22:00.442Z,7.93
2023-04-20T10:25:15.304Z,8.87
2023-04-20T10:28:18.064Z,9.03
2023-04-20T10:31:24.340Z,10.00
2023-04-20T10:34:36.518Z,8.27
2023-04-20T10:37:49.080Z,6.63
2023-04-20T10:40:51.792Z,7.00
2023-04-20T10:43:54.510Z,6.43
2023-04-20T10:46:58.357Z,8.53
2023-04-20T10:50:14.004Z,6.87
2023-04-20T10:53:21.495Z,8.13
2023-04-20T10:56:24.296Z,8.17
2023-04-20T10:59:29.970Z,7.67
2023-04-20T11:02:32.929Z,7.13
2023-04-20T11:05:37.228Z,8.10
2023-04-20T11:08:41.973Z,6.40
2023-04-20T11:11:44.921Z,7.17
2023-04-20T11:15:00.620Z,7.07
2023-04-20T11:18:10.119Z,8.30
2023-04-20T11:21:14.327Z,11.33
2023-04-20T11:24:21.102Z,6.87
2023-04-20T11:27:23.846Z,7.90
2023-04-20T11:30:26.784Z,6.87
2023-04-20T11:33:31.385Z,7.90
2023-04-20T11:36:40.520Z,6.07
2023-04-20T11:39:43.285Z,5.23
2023-04-20T11:42:46.329Z,5.97
2023-04-20T11:45:49.496Z,6.40
2023-04-20T11:48:52.288Z,7.63
2023-04-20T11:51:56.585Z,8.20
2023-04-20T11:54:59.299Z,8.47
2023-04-20T11:58:01.987Z,7.67
2023-04-20T12:01:05.689Z,6.07
2023-04-20T12:04:08.816Z,7.27
2023-04-20T12:07:13.121Z,6.03
2023-04-20T12:10:15.875Z,6.17
2023-04-20T12:13:18.577Z,7.70
2023-04-20T12:16:21.784Z,7.10
2023-04-20T12:19:24.486Z,7.67
2023-04-20T12:22:28.736Z,7.37
2023-04-20T12:25:31.746Z,8.27
2023-04-20T12:28:34.569Z,10.30
2023-04-20T12:31:37.470Z,5.53
2023-04-20T12:34:40.239Z,9.10
2023-04-20T12:37:44.419Z,6.77
2023-04-20T12:40:47.187Z,8.93
2023-04-20T12:43:49.933Z,7.47
2023-04-20T12:46:52.812Z,5.47
2023-04-20T12:49:56.255Z,8.73
2023-04-20T12:53:00.433Z,5.07
2023-04-20T12:56:03.562Z,5.57
2023-04-20T12:59:06.243Z,7.80
2023-04-20T13:02:08.997Z,4.17
2023-04-20T13:05:11.955Z,5.53
2023-04-20T13:08:16.280Z,7.10
2023-04-20T13:11:19.187Z,10.67
2023-04-20T13:14:21.994Z,3.93
2023-04-20T13:17:24.768Z,4.57
2023-04-20T13:20:29.395Z,4.83
2023-04-20T13:23:33.480Z,5.67
2023-04-20T13:26:36.743Z,5.20
2023-04-20T13:29:40.032Z,5.57
2023-04-20T13:32:43.021Z,11.87
2023-04-20T13:35:45.716Z,4.17
2023-04-20T13:38:54.786Z,8.03
2023-04-20T13:41:58.103Z,4.27
2023-04-20T13:45:01.920Z,7.20
2023-04-20T13:48:04.909Z,5.73
2023-04-20T13:51:07.846Z,7.70
2023-04-20T13:54:11.892Z,5.03
2023-04-20T13:57:14.708Z,5.93
2023-04-20T14:00:17.846Z,5.67
2023-04-20T14:03:21.183Z,17.10
2023-04-20T14:06:24.178Z,5.33
2023-04-20T14:09:29.371Z,4.60
2023-04-20T14:12:33.692Z,4.63
2023-04-20T14:15:36.501Z,3.37
2023-04-20T14:18:39.596Z,4.67
2023-04-20T14:21:44.555Z,6.30
2023-04-20T14:24:48.726Z,6.30
2023-04-20T14:27:51.522Z,6.40
2023-04-20T14:30:54.705Z,5.60
2023-04-20T14:33:57.498Z,9.30
2023-04-20T14:37:00.668Z,7.27
2023-04-20T14:40:07.156Z,8.17
2023-04-20T14:43:09.905Z,6.13
2023-04-20T14:46:12.758Z,11.30
2023-04-20T14:49:15.491Z,6.00
2023-04-20T14:52:18.284Z,6.60
2023-04-20T14:55:23.596Z,8.73
2023-04-20T14:58:26.315Z,9.93
2023-04-20T15:01:29.190Z,8.37
2023-04-20T15:04:32.471Z,10.57
2023-04-20T15:07:35.394Z,7.23
2023-04-20T15:10:40.814Z,7.97
2023-04-20T15:13:43.818Z,6.80
2023-04-20T15:16:46.629Z,8.67
2023-04-20T15:19:49.503Z,7.47
2023-04-20T15:22:52.497Z,8.83
2023-04-20T15:25:56.695Z,10.60
2023-04-20T15:28:59.470Z,47.60
2023-04-20T15:32:02.336Z,8.30
2023-04-20T15:35:05.620Z,19.53
2023-04-20T15:38:09.170Z,6.57
2023-04-20T15:41:13.494Z,6.63
2023-04-20T15:44:16.437Z,6.83
2023-04-20T15:47:19.249Z,8.83
2023-04-20T15:50:22.095Z,6.83
2023-04-20T15:53:25.261Z,6.20
2023-04-20T15:56:29.554Z,6.90
2023-04-20T15:59:32.636Z,6.20
2023-04-20T16:02:35.976Z,9.87
2023-04-20T16:05:38.864Z,17.07
2023-04-20T16:08:41.871Z,6.80
2023-04-20T16:11:45.936Z,7.43
2023-04-20T16:14:53.225Z,7.77
2023-04-20T16:17:56.518Z,6.83
2023-04-20T16:21:00.866Z,13.60
2023-04-20T16:24:03.612Z,13.23
2023-04-20T16:27:07.666Z,24.23
2023-04-20T16:30:11.623Z,10.53
2023-04-20T16:33:14.361Z,10.37
2023-04-20T16:36:17.281Z,16.57
2023-04-20T16:39:20.133Z,13.13
2023-04-20T16:42:24.301Z,7.87
2023-04-20T16:45:27.077Z,7.00
2023-04-20T16:48:29.855Z,9.40
2023-04-20T16:51:32.610Z,23.27
2023-04-20T16:54:54.430Z,17.17
2023-04-20T16:58:00.419Z,10.00
2023-04-20T17:01:03.666Z,11.70
2023-04-20T17:04:06.929Z,11.67
2023-04-20T17:07:09.918Z,15.30
2023-04-20T17:10:13.099Z,22.37
2023-04-20T17:13:17.475Z,22.13
2023-04-20T17:16:20.934Z,18.70
2023-04-20T17:19:24.086Z,20.17
2023-04-20T17:22:26.932Z,18.30
2023-04-20T17:25:29.730Z,16.07
2023-04-20T17:28:35.219Z,15.23
2023-04-20T17:31:38.033Z,12.33
2023-04-20T17:34:41.193Z,13.73
2023-04-20T17:37:43.928Z,13.43
2023-04-20T17:40:46.621Z,21.33
2023-04-20T17:43:53.062Z,17.03
2023-04-20T17:46:55.842Z,17.13
2023-04-20T17:49:59.785Z,16.13
2023-04-20T17:53:06.511Z,13.83
2023-04-20T17:56:09.589Z,14.10
2023-04-20T17:59:13.795Z,15.27
2023-04-20T18:02:16.825Z,19.70
2023-04-20T18:05:19.615Z,16.83
2023-04-20T18:08:23.962Z,17.73
2023-04-20T18:11:26.886Z,16.17
2023-04-20T18:14:30.938Z,15.83
2023-04-20T18:17:33.849Z,14.90
2023-04-20T18:20:36.732Z,17.87
2023-04-20T18:23:39.548Z,22.90
2023-04-20T18:26:42.270Z,19.67
2023-04-20T18:29:46.354Z,26.40
2023-04-20T18:32:49.133Z,17.00
2023-04-20T18:35:51.958Z,23.40
2023-04-20T18:38:55.309Z,26.13
2023-04-20T18:41:58.063Z,26.93
2023-04-20T18:45:02.190Z,21.40
2023-04-20T18:48:05.525Z,20.60
2023-04-20T18:51:08.242Z,26.60
2023-04-20T18:54:10.950Z,20.20
2023-04-20T18:57:13.631Z,27.20
2023-04-20T19:00:18.426Z,32.10
2023-04-20T19:03:21.340Z,36.93
2023-04-20T19:06:24.203Z,26.17
2023-04-20T19:09:27.059Z,36.70
2023-04-20T19:12:29.801Z,24.80
2023-04-20T19:15:33.898Z,37.43
2023-04-20T19:18:36.628Z,24.30
2023-04-20T19:21:39.428Z,21.07
2023-04-20T19:24:42.228Z,19.20
2023-04-20T19:27:45.007Z,23.00
2023-04-20T19:30:49.097Z,20.90
2023-04-20T19:33:51.821Z,31.03
2023-04-20T19:36:54.919Z,19.37
2023-04-20T19:39:58.012Z,21.80
2023-04-20T19:43:00.763Z,16.67
2023-04-20T19:46:04.920Z,28.93
2023-04-20T19:49:08.070Z,21.77
2023-04-20T19:52:10.880Z,23.67
2023-04-20T19:55:13.584Z,26.80
2023-04-20T19:58:16.304Z,25.33
2023-04-20T20:01:20.727Z,24.83
2023-04-20T20:04:23.555Z,30.87
2023-04-20T20:07:29.042Z,30.37
2023-04-20T20:10:31.777Z,28.93
2023-04-20T20:13:34.495Z,23.80
2023-04-20T20:16:38.550Z,26.93
2023-04-20T20:19:43.166Z,22.57
2023-04-20T20:22:48.401Z,28.03
2023-04-20T20:25:51.106Z,29.80
2023-04-20T20:28:54.054Z,29.80
2023-04-20T20:31:58.144Z,25.63
2023-04-20T20:35:01.068Z,26.70
2023-04-20T20:38:06.222Z,24.00
2023-04-20T20:41:09.447Z,25.03
2023-04-20T20:44:12.452Z,26.77
2023-04-20T20:47:16.700Z,21.70
2023-04-20T20:50:20.134Z,25.00
2023-04-20T20:53:22.914Z,27.37
2023-04-20T20:56:26.001Z,24.87
2023-04-20T20:59:28.723Z,24.63
2023-04-20T21:02:33.019Z,26.83
2023-04-20T21:05:36.074Z,30.27
2023-04-20T21:08:39.000Z,27.20
2023-04-20T21:11:44.526Z,26.70
2023-04-20T21:14:47.240Z,25.87
2023-04-20T21:17:51.316Z,25.90
2023-04-20T21:20:54.150Z,26.53
2023-04-20T21:23:57.089Z,28.90
2023-04-20T21:26:59.786Z,39.00
2023-04-20T21:30:02.534Z,29.60
2023-04-20T21:33:06.963Z,30.60
2023-04-20T21:36:09.846Z,26.23
2023-04-20T21:39:13.109Z,30.00
2023-04-20T21:42:15.845Z,31.57
2023-04-20T21:45:18.673Z,30.70
2023-04-20T21:48:22.830Z,40.00
2023-04-20T21:51:25.583Z,32.13
2023-04-20T21:54:28.247Z,32.93
2023-04-20T21:57:30.944Z,30.43
2023-04-20T22:00:34.088Z,36.87
2023-04-20T22:03:38.460Z,30.80
2023-04-20T22:06:41.250Z,31.17
2023-04-20T22:09:43.965Z,30.30
2023-04-20T22:12:46.795Z,32.63
2023-04-20T22:15:51.385Z,31.60
2023-04-20T22:18:55.525Z,35.53
2023-04-20T22:21:58.201Z,35.50
2023-04-20T22:25:04.765Z,41.27
2023-04-20T22:28:07.517Z,51.07
2023-04-20T22:31:10.254Z,40.73
2023-04-20T22:34:14.330Z,44.17
2023-04-20T22:37:17.160Z,43.60
2023-04-20T22:40:20.038Z,38.37
2023-04-20T22:43:23.441Z,39.20
2023-04-20T22:46:26.289Z,46.60
2023-04-20T22:49:30.523Z,41.03
2023-04-20T22:52:33.534Z,41.03
2023-04-20T22:55:36.220Z,45.87
2023-04-20T22:58:38.867Z,43.30
2023-04-20T23:01:41.585Z,41.60
2023-04-20T23:04:45.744Z,44.97
2023-04-20T23:07:48.754Z,41.73
2023-04-20T23:10:53.669Z,38.83
2023-04-20T23:13:56.793Z,50.17
2023-04-20T23:17:00.057Z,41.43
2023-04-20T23:20:04.800Z,38.10
2023-04-20T23:23:07.684Z,40.00
2023-04-20T23:26:10.601Z,40.17
2023-04-20T23:29:13.328Z,44.10
2023-04-20T23:32:16.022Z,38.27
2023-04-20T23:35:20.841Z,36.93
2023-04-20T23:38:23.528Z,39.70
2023-04-20T23:41:26.275Z,41.77
2023-04-20T23:44:28.968Z,42.00
2023-04-20T23:47:31.647Z,47.87
2023-04-20T23:50:37.020Z,49.73
2023-04-20T23:53:40.018Z,47.67
2023-04-20T23:56:42.694Z,50.23
2023-04-20T23:59:45.360Z,50.00
